createdAt,value
2018-07-21T16:18:51.036Z,23.40
2018-07-21T16:21:26.224Z,24.20
2018-07-21T16:23:57.032Z,24.10
2018-07-21T16:26:24.820Z,24.00
2018-07-21T16:28:57.690Z,24.00
2018-07-21T16:31:32.475Z,23.70
2018-07-21T16:34:04.424Z,23.50
2018-07-21T16:36:37.074Z,23.30
2018-07-21T16:39:10.767Z,23.10
2018-07-21T16:41:39.347Z,23.00
2018-07-21T16:44:10.078Z,22.90
2018-07-21T16:46:38.790Z,22.90
2018-07-21T16:49:07.381Z,23.00
2018-07-21T16:51:41.388Z,22.80
2018-07-21T16:54:13.694Z,22.70
2018-07-21T16:56:42.672Z,22.40
2018-07-21T16:59:14.013Z,22.30
2018-07-21T17:01:45.182Z,22.00
2018-07-21T17:04:16.489Z,21.90
2018-07-21T17:06:49.684Z,21.80
2018-07-21T17:09:20.228Z,21.70
2018-07-21T17:11:48.907Z,21.60
2018-07-21T17:14:17.885Z,21.50
2018-07-21T17:16:48.135Z,21.30
2018-07-21T17:19:16.403Z,21.10
2018-07-21T17:21:45.093Z,20.90
2018-07-21T17:24:13.302Z,20.80
2018-07-21T17:26:41.057Z,20.60
2018-07-21T17:29:10.345Z,20.40
2018-07-21T17:31:38.389Z,20.30
2018-07-21T17:34:07.227Z,20.20
2018-07-21T17:36:38.968Z,20.20
2018-07-21T17:39:14.815Z,20.30
2018-07-21T17:41:44.373Z,20.30
2018-07-21T17:44:14.088Z,20.10
2018-07-21T17:46:42.862Z,20.10
2018-07-21T17:49:10.746Z,20.10
2018-07-21T17:51:38.488Z,20.10
2018-07-21T17:54:06.267Z,20.10
2018-07-21T17:56:34.068Z,20.10
2018-07-21T17:59:02.020Z,20.10
2018-07-21T18:01:30.144Z,20.00
2018-07-21T18:03:58.805Z,20.10
2018-07-21T18:06:27.588Z,20.20
2018-07-21T18:08:56.038Z,20.30
2018-07-21T18:11:26.179Z,20.30
2018-07-21T18:13:53.939Z,20.40
2018-07-21T18:16:22.703Z,20.40
2018-07-21T18:18:50.571Z,20.40
2018-07-21T18:21:18.348Z,20.40
2018-07-21T18:23:46.131Z,20.50
2018-07-21T18:26:13.868Z,20.50
2018-07-21T18:28:41.664Z,20.60
2018-07-21T18:31:09.415Z,20.60
2018-07-21T18:33:37.189Z,20.60
2018-07-21T18:36:04.960Z,20.70
2018-07-21T18:38:32.811Z,20.80
2018-07-21T18:41:00.575Z,20.80
2018-07-21T18:43:28.343Z,20.70
2018-07-21T18:45:56.086Z,20.80
2018-07-21T18:48:23.820Z,20.80
2018-07-21T18:50:51.672Z,20.80
2018-07-21T18:53:19.429Z,20.80
2018-07-21T18:55:47.262Z,20.60
2018-07-21T18:58:15.092Z,20.60
2018-07-21T19:00:42.795Z,20.60
2018-07-21T19:03:10.609Z,20.60
2018-07-21T19:05:38.340Z,20.40
2018-07-21T19:08:06.080Z,20.40
2018-07-21T19:10:33.806Z,20.40
2018-07-21T19:13:01.613Z,20.30
2018-07-21T19:15:34.748Z,20.30
2018-07-21T19:18:02.522Z,20.30
2018-07-21T19:20:36.740Z,20.40
2018-07-21T19:23:04.817Z,20.40
2018-07-21T19:25:38.128Z,20.30
2018-07-21T19:28:05.924Z,20.20
2018-07-21T19:30:34.205Z,20.10
2018-07-21T19:33:01.933Z,20.20
2018-07-21T19:35:30.772Z,20.20
2018-07-21T19:37:58.924Z,20.40
2018-07-21T19:40:26.707Z,20.40
2018-07-21T19:42:54.695Z,20.50
2018-07-21T19:45:22.447Z,20.60
2018-07-21T19:47:50.251Z,20.60
2018-07-21T19:50:17.956Z,20.70
2018-07-21T19:52:45.705Z,20.70
2018-07-21T19:55:13.530Z,20.70
2018-07-21T19:57:41.377Z,20.70
2018-07-21T20:00:09.300Z,20.70
2018-07-21T20:02:37.110Z,20.80
2018-07-21T20:05:04.939Z,20.80
2018-07-21T20:07:32.679Z,20.80
2018-07-21T20:10:00.480Z,20.90
2018-07-21T20:12:28.223Z,21.00
2018-07-21T20:14:55.908Z,21.00
2018-07-21T20:17:23.778Z,21.10
2018-07-21T20:19:51.495Z,21.10
2018-07-21T20:22:19.317Z,21.10
2018-07-21T20:24:47.056Z,21.10
2018-07-21T20:27:14.849Z,21.10
2018-07-21T20:29:42.562Z,21.10
2018-07-21T20:32:10.511Z,21.10
2018-07-21T20:34:38.257Z,21.10
2018-07-21T20:37:06.068Z,21.10
2018-07-21T20:39:33.891Z,21.10
2018-07-21T20:42:01.634Z,21.10
2018-07-21T20:44:29.481Z,21.10
2018-07-21T20:46:57.304Z,21.10
2018-07-21T20:49:25.103Z,21.10
2018-07-21T20:51:52.831Z,21.20
2018-07-21T20:54:20.651Z,21.20
2018-07-21T20:56:48.412Z,21.10
2018-07-21T20:59:16.250Z,21.10
2018-07-21T21:01:44.096Z,21.00
2018-07-21T21:04:11.907Z,21.00
2018-07-21T21:06:39.630Z,20.90
2018-07-21T21:09:08.900Z,20.90
2018-07-21T21:11:36.660Z,20.90
2018-07-21T21:14:04.413Z,21.00
2018-07-21T21:16:32.134Z,21.00
2018-07-21T21:18:59.855Z,21.00
2018-07-21T21:21:27.733Z,21.00
2018-07-21T21:23:55.449Z,21.00
2018-07-21T21:26:23.211Z,21.00
2018-07-21T21:28:51.004Z,21.00
2018-07-21T21:31:18.721Z,21.00
2018-07-21T21:33:46.481Z,21.10
2018-07-21T21:36:14.237Z,21.10
2018-07-21T21:38:42.092Z,21.00
2018-07-21T21:41:09.841Z,21.10
2018-07-21T21:43:37.777Z,21.10
2018-07-21T21:46:05.813Z,21.00
2018-07-21T21:48:33.531Z,21.10
2018-07-21T21:51:01.270Z,21.10
2018-07-21T21:53:28.975Z,21.10
2018-07-21T21:55:56.729Z,21.10
2018-07-21T21:58:24.562Z,20.80
2018-07-21T22:01:01.708Z,21.00
2018-07-21T22:03:30.181Z,21.00
2018-07-21T22:05:58.434Z,21.10
2018-07-21T22:08:26.199Z,21.10
2018-07-21T22:10:53.937Z,21.10
2018-07-21T22:13:21.763Z,21.10
2018-07-21T22:15:49.465Z,21.00
2018-07-21T22:18:17.461Z,21.00
2018-07-21T22:20:45.231Z,21.10
2018-07-21T22:23:12.940Z,21.10
2018-07-21T22:25:40.647Z,21.10
2018-07-21T22:28:08.363Z,21.10
2018-07-21T22:30:36.061Z,21.10
2018-07-21T22:33:04.068Z,21.10
2018-07-21T22:35:31.974Z,21.10
2018-07-21T22:37:59.924Z,21.10
2018-07-21T22:40:27.620Z,21.10
2018-07-21T22:42:55.327Z,21.10
2018-07-21T22:45:23.073Z,21.10
2018-07-21T22:47:50.908Z,21.10
2018-07-21T22:50:18.637Z,21.10
2018-07-21T22:52:46.338Z,21.00
2018-07-21T22:55:14.139Z,21.00
2018-07-21T22:57:42.048Z,20.90
2018-07-21T23:00:09.746Z,20.90
2018-07-21T23:02:38.006Z,20.90
2018-07-21T23:05:05.855Z,20.90
2018-07-21T23:07:33.515Z,21.00
2018-07-21T23:10:01.369Z,20.90
2018-07-21T23:12:29.032Z,20.90
2018-07-21T23:14:56.753Z,20.90
2018-07-21T23:17:24.414Z,21.00
2018-07-21T23:19:52.245Z,20.90
2018-07-21T23:22:19.904Z,21.00
2018-07-21T23:24:47.580Z,21.00
2018-07-21T23:27:15.288Z,21.00
2018-07-21T23:29:42.995Z,21.00
2018-07-21T23:32:10.671Z,21.00
2018-07-21T23:34:38.319Z,21.00
2018-07-21T23:37:06.145Z,21.00
2018-07-21T23:39:33.960Z,20.90
2018-07-21T23:42:01.685Z,20.90
2018-07-21T23:44:29.375Z,21.00
2018-07-21T23:46:57.055Z,20.90
2018-07-21T23:49:24.723Z,21.00
2018-07-21T23:51:52.631Z,20.90
2018-07-21T23:54:20.309Z,20.90
2018-07-21T23:56:48.008Z,20.90
2018-07-21T23:59:15.796Z,21.00
